Time;durP1;ratioP1;P1;durP2;ratioP2;P2;SDS_P1;SDS_P2;PMS_P1;PMS_P2;Temp;Humidity;BMP_temperature;BMP_pressure;BME280_temperature;BME280_humidity;BME280_pressure;Samples;Min_cycle;Max_cycle;Signal;HPM_P1;HPM_P2
2021/03/19 00:00:13;;;;;;;;;;;;;;;;;;2082716;28;19925;-75
2021/03/19 00:01:14;;;;;;;;;;;;;;;;;;2082833;28;19928;-76
2021/03/19 00:02:15;;;;;;;;;;;;;;;;;;2083282;28;20048;-75
2021/03/19 00:03:17;;;;;;;;;;;;;;;;;;2083201;28;20047;-74
2021/03/19 00:04:18;;;;;;;;;;;;;;;;;;2082703;28;19967;-73
2021/03/19 00:05:21;;;;;;;;;;;;;;;;;;2083412;28;20007;-75
2021/03/19 00:06:22;;;;;;;;;;;;;;;;;;2083386;28;20308;-75
2021/03/19 00:07:24;;;;;;;;;;;;;;;;;;2083692;28;20017;-76
2021/03/19 00:08:25;;;;;;;;;;;;;;;;;;2083516;28;19921;-77
2021/03/19 00:09:26;;;;;;;;;;;;;;;;;;2083385;28;20058;-76
2021/03/19 00:10:29;;;;;;;;;;;;;;;;;;2083414;28;20309;-76
2021/03/19 00:11:30;;;;;;;;;;;;;;;;;;2083945;28;19929;-76
2021/03/19 00:12:31;;;;;;;;;;;;;;;;;;2083860;28;20012;-76
2021/03/19 00:13:32;;;;;;;;;;;;;;;;;;2083884;28;20337;-75
2021/03/19 00:14:33;;;;;;;;;;;;;;;;;;2083363;28;20020;-76
2021/03/19 00:15:34;;;;;;;;;;;;;;;;;;2083977;28;20047;-76
2021/03/19 00:16:35;;;;;;;;;;;;;;;;;;2084065;28;19928;-76
2021/03/19 00:17:37;;;;;;;;;;;;;;;;;;2083409;28;20008;-77
2021/03/19 00:18:49;;;;;;;;;;;;;;;;;;2083700;28;19967;-75
2021/03/19 00:19:50;;;;;;;;;;;;;;;;;;2083638;28;19921;-76
2021/03/19 00:20:52;;;;;;;;;;;;;;;;;;2083484;28;20011;-75
2021/03/19 00:21:52;;;;;;;;;;;;;;;;;;2083565;28;19969;-75
2021/03/19 00:22:54;;;;;;;;;;;;;;;;;;2083390;28;19921;-74
2021/03/19 00:23:55;;;;;;;;;;;;;;;;;;2083258;28;19921;-74
2021/03/19 00:24:56;;;;;;;;;;;;;;;;;;2083385;28;19972;-74
2021/03/19 00:25:57;;;;;;;;;;;;;;;;;;2083739;28;19979;-73
2021/03/19 00:26:58;;;;;;;;;;;;;;;;;;2083418;28;19921;-75
2021/03/19 00:27:59;;;;;;;;;;;;;;;;;;2083708;28;19921;-75
2021/03/19 00:29:00;;;;;;;;;;;;;;;;;;2083721;28;20000;-75
2021/03/19 00:30:03;;;;;;;;;;;;;;;;;;2082497;28;19947;-75
2021/03/19 00:31:04;;;;;;;;;;;;;;;;;;2083140;28;19928;-75
2021/03/19 00:32:05;;;;;;;;;;;;;;;;;;2083642;28;20008;-74
2021/03/19 00:33:06;;;;;;;;;;;;;;;;;;2090928;28;19960;-74
2021/03/19 00:34:07;;;;;;;;;;;;;;;;;;2091241;28;19939;-73
2021/03/19 00:35:09;;;;;;;;;;;;;;;;;;2083355;28;19921;-74
2021/03/19 00:36:10;;;;;;;;;;;;;;;;;;2083160;28;20363;-74
2021/03/19 00:37:11;;;;;;;;;;;;;;;;;;2090937;28;20016;-74
2021/03/19 00:38:12;;;;;;;;;;;;;;;;;;2082649;28;20008;-75
2021/03/19 00:39:13;;;;;;;;;;;;;;;;;;2074457;28;20430;-77
2021/03/19 00:40:15;;;;;;;;;;;;;;;;;;2082609;28;19928;-75
2021/03/19 00:41:18;;;;;;;;;;;;;;;;;;2091269;28;19928;-76
2021/03/19 00:42:19;;;;;;;;;;;;;;;;;;2090687;28;20007;-76
2021/03/19 00:43:20;;;;;;;;;;;;;;;;;;2083641;28;20015;-76
2021/03/19 00:44:21;;;;;;;;;;;;;;;;;;2083038;28;20325;-77
2021/03/19 00:45:24;;;;;;;;;;;;;;;;;;2074770;28;19925;-77
2021/03/19 00:46:25;;;;;;;;;;;;;;;;;;2074647;28;19975;-75
2021/03/19 00:47:26;;;;;;;;;;;;;;;;;;2082949;28;19935;-76
2021/03/19 00:48:27;;;;;;;;;;;;;;;;;;2082510;28;20257;-76
2021/03/19 00:49:28;;;;;;;;;;;;;;;;;;2082472;28;19975;-77
2021/03/19 00:50:31;;;;;;;;;;;;;;;;;;2082453;28;19952;-77
2021/03/19 00:51:32;;;;;;;;;;;;;;;;;;2083246;28;19960;-76
2021/03/19 00:52:33;;;;;;;;;;;;;;;;;;2082461;28;19943;-74
2021/03/19 00:53:34;;;;;;;;;;;;;;;;;;2082712;28;19921;-74
2021/03/19 00:54:35;;;;;;;;;;;;;;;;;;2090537;28;19921;-75
2021/03/19 00:55:37;;;;;;;;;;;;;;;;;;2091106;28;19928;-74
2021/03/19 00:56:38;;;;;;;;;;;;;;;;;;2083502;28;19976;-74
2021/03/19 00:57:39;;;;;;;;;;;;;;;;;;2083164;28;19921;-75
2021/03/19 00:58:40;;;;;;;;;;;;;;;;;;2091032;28;19920;-75
2021/03/19 00:59:41;;;;;;;;;;;;;;;;;;2090370;28;19920;-74
2021/03/19 01:00:42;;;;;;;;;;;;;;;;;;2090779;28;19921;-74
2021/03/19 01:01:43;;;;;;;;;;;;;;;;;;2090473;28;19928;-75
2021/03/19 01:02:44;;;;;;;;;;;;;;;;;;2082443;28;19921;-74
2021/03/19 01:03:46;;;;;;;;;;;;;;;;;;2083317;28;20276;-74
2021/03/19 01:04:47;;;;;;;;;;;;;;;;;;2083332;28;19929;-74
2021/03/19 01:05:48;;;;;;;;;;;;;;;;;;2083096;28;20357;-76
2021/03/19 01:06:49;;;;;;;;;;;;;;;;;;2083047;28;19921;-75
2021/03/19 01:07:50;;;;;;;;;;;;;;;;;;2083154;28;19921;-75
2021/03/19 01:08:51;;;;;;;;;;;;;;;;;;2082730;28;20016;-75
2021/03/19 01:09:52;;;;;;;;;;;;;;;;;;2082254;28;20357;-75
2021/03/19 01:10:55;;;;;;;;;;;;;;;;;;2082205;28;19921;-75
2021/03/19 01:11:56;;;;;;;;;;;;;;;;;;2074402;28;19925;-75
2021/03/19 01:12:57;;;;;;;;;;;;;;;;;;2082451;28;19921;-74
2021/03/19 01:13:58;;;;;;;;;;;;;;;;;;2082935;28;19921;-74
2021/03/19 01:14:59;;;;;;;;;;;;;;;;;;2082848;28;19921;-75
2021/03/19 01:16:00;;;;;;;;;;;;;;;;;;2082907;28;19921;-75
2021/03/19 01:17:02;;;;;;;;;;;;;;;;;;2082804;28;19928;-75
2021/03/19 01:18:04;;;;;;;;;;;;;;;;;;2082971;28;20031;-76
2021/03/19 01:19:05;;;;;;;;;;;;;;;;;;2082909;28;19999;-75
2021/03/19 01:20:08;;;;;;;;;;;;;;;;;;2090760;28;19924;-76
2021/03/19 01:21:09;;;;;;;;;;;;;;;;;;2090170;28;19960;-75
2021/03/19 01:22:10;;;;;;;;;;;;;;;;;;2090967;28;20047;-75
2021/03/19 01:23:11;;;;;;;;;;;;;;;;;;2090526;28;19928;-75
2021/03/19 01:24:12;;;;;;;;;;;;;;;;;;2082475;28;20010;-75
2021/03/19 01:25:16;;;;;;;;;;;;;;;;;;2082740;28;20383;-75
2021/03/19 01:26:17;;;;;;;;;;;;;;;;;;2090574;28;20007;-73
2021/03/19 01:27:18;;;;;;;;;;;;;;;;;;2082292;28;20328;-74
2021/03/19 01:28:19;;;;;;;;;;;;;;;;;;2082377;28;19921;-73
2021/03/19 01:29:20;;;;;;;;;;;;;;;;;;2090377;28;20431;-77
2021/03/19 01:30:23;;;;;;;;;;;;;;;;;;2082901;28;19995;-74
2021/03/19 01:31:24;;;;;;;;;;;;;;;;;;2082706;28;19932;-74
2021/03/19 01:32:25;;;;;;;;;;;;;;;;;;2082726;28;19974;-74
2021/03/19 01:33:26;;;;;;;;;;;;;;;;;;2083171;28;19921;-75
2021/03/19 01:34:27;;;;;;;;;;;;;;;;;;2082652;28;19921;-77
2021/03/19 01:35:29;;;;;;;;;;;;;;;;;;2082846;28;19925;-76
2021/03/19 01:36:31;;;;;;;;;;;;;;;;;;2082720;28;20327;-75
2021/03/19 01:37:32;;;;;;;;;;;;;;;;;;2073889;28;19987;-75
2021/03/19 01:38:37;;;;;;;;;;;;;;;;;;2073985;28;20375;-75
2021/03/19 01:39:38;;;;;;;;;;;;;;;;;;2082616;28;19921;-75
2021/03/19 01:40:41;;;;;;;;;;;;;;;;;;2082823;28;20269;-76
2021/03/19 01:41:43;;;;;;;;;;;;;;;;;;2082638;28;20365;-76
2021/03/19 01:42:46;;;;;;;;;;;;;;;;;;2090451;28;20003;-75
2021/03/19 01:43:52;;;;;;;;;;;;;;;;;;2090067;28;20484;-75
2021/03/19 01:44:53;;;;;;;;;;;;;;;;;;2082060;28;19929;-74
2021/03/19 01:46:00;;;;;;;;;;;;;;;;;;2082529;28;20240;-74
2021/03/19 01:47:25;;;;;;;;;;;;;;;;;;2082649;28;20395;-73
2021/03/19 01:48:45;;;;;;;;;;;;;;;;;;2081863;28;19963;-73
2021/03/19 01:50:06;;;;;;;;;;;;;;;;;;2082810;28;19963;-74
2021/03/19 01:51:26;;;;;;;;;;;;;;;;;;2082713;28;19986;-73
2021/03/19 01:52:45;;;;;;;;;;;;;;;;;;2090380;28;20464;-74
2021/03/19 01:54:05;;;;;;;;;;;;;;;;;;2087837;28;19974;-74
2021/03/19 01:55:25;;;;;;;;;;;;;;;;;;2082079;28;20419;-73
2021/03/19 01:56:44;;;;;;;;;;;;;;;;;;2082613;28;20008;-75
2021/03/19 01:58:04;;;;;;;;;;;;;;;;;;2082984;28;19924;-75
2021/03/19 01:59:23;;;;;;;;;;;;;;;;;;2082624;28;19974;-75
2021/03/19 02:00:43;;;;;;;;;;;;;;;;;;2090077;28;19967;-76
2021/03/19 02:01:44;;;;;;;;;;;;;;;;;;2087987;28;19928;-77
2021/03/19 02:03:04;;;;;;;;;;;;;;;;;;2082652;28;19965;-77
2021/03/19 02:04:24;;;;;;;;;;;;;;;;;;2082617;28;19921;-79
2021/03/19 02:05:43;;;;;;;;;;;;;;;;;;2082527;28;20369;-75
2021/03/19 02:07:03;;;;;;;;;;;;;;;;;;2082636;28;19952;-75
2021/03/19 02:08:22;;;;;;;;;;;;;;;;;;2090275;28;20019;-76
2021/03/19 02:09:42;;;;;;;;;;;;;;;;;;2087634;28;20054;-76
2021/03/19 02:11:01;;;;;;;;;;;;;;;;;;2083028;28;19983;-76
2021/03/19 02:12:21;;;;;;;;;;;;;;;;;;2082481;28;19925;-76
2021/03/19 02:13:40;;;;;;;;;;;;;;;;;;2090067;28;19928;-77
2021/03/19 02:15:00;;;;;;;;;;;;;;;;;;2087746;28;20388;-76
2021/03/19 02:16:20;;;;;;;;;;;;;;;;;;2082581;28;19928;-76
2021/03/19 02:17:39;;;;;;;;;;;;;;;;;;2082710;28;19928;-76
2021/03/19 02:18:59;;;;;;;;;;;;;;;;;;2082423;28;20242;-75
2021/03/19 02:20:19;;;;;;;;;;;;;;;;;;2082537;28;19960;-78
2021/03/19 02:21:38;;;;;;;;;;;;;;;;;;2082664;28;19929;-75
2021/03/19 02:22:58;;;;;;;;;;;;;;;;;;2082575;28;19927;-75
2021/03/19 02:24:17;;;;;;;;;;;;;;;;;;2082734;28;19921;-77
2021/03/19 02:25:36;;;;;;;;;;;;;;;;;;2083008;28;19956;-76
2021/03/19 02:26:37;;;;;;;;;;;;;;;;;;2082458;28;20011;-76
2021/03/19 02:27:57;;;;;;;;;;;;;;;;;;2082834;28;19928;-75
2021/03/19 02:29:16;;;;;;;;;;;;;;;;;;2082517;28;19971;-75
2021/03/19 02:30:36;;;;;;;;;;;;;;;;;;2082363;28;19952;-76
2021/03/19 02:31:50;;;;;;;;;;;;;;;;;;2082578;28;19971;-78
2021/03/19 02:32:51;;;;;;;;;;;;;;;;;;2082911;28;19974;-77
2021/03/19 02:33:52;;;;;;;;;;;;;;;;;;2082517;28;20265;-77
2021/03/19 02:34:56;;;;;;;;;;;;;;;;;;2082559;28;20357;-77
2021/03/19 02:35:59;;;;;;;;;;;;;;;;;;2082410;28;20007;-77
2021/03/19 02:37:00;;;;;;;;;;;;;;;;;;2090638;28;19964;-76
2021/03/19 02:38:01;;;;;;;;;;;;;;;;;;2090588;28;19980;-75
2021/03/19 02:39:02;;;;;;;;;;;;;;;;;;2090386;28;20281;-76
2021/03/19 02:40:04;;;;;;;;;;;;;;;;;;2090136;28;19925;-75
2021/03/19 02:41:05;;;;;;;;;;;;;;;;;;2082725;28;19928;-75
2021/03/19 02:42:07;;;;;;;;;;;;;;;;;;2082475;28;19944;-75
2021/03/19 02:43:08;;;;;;;;;;;;;;;;;;2082340;28;19922;-75
2021/03/19 02:44:09;;;;;;;;;;;;;;;;;;2082710;28;19921;-75
2021/03/19 02:45:12;;;;;;;;;;;;;;;;;;2082554;28;19921;-75
2021/03/19 02:46:13;;;;;;;;;;;;;;;;;;2081916;28;20024;-74
2021/03/19 02:47:14;;;;;;;;;;;;;;;;;;2082222;28;19968;-76
2021/03/19 02:48:16;;;;;;;;;;;;;;;;;;2082343;28;19991;-75
2021/03/19 02:49:17;;;;;;;;;;;;;;;;;;2082674;28;19967;-75
2021/03/19 02:50:18;;;;;;;;;;;;;;;;;;2082509;28;19960;-75
2021/03/19 02:51:19;;;;;;;;;;;;;;;;;;2090424;28;19921;-76
2021/03/19 02:52:21;;;;;;;;;;;;;;;;;;2090356;28;20319;-75
2021/03/19 02:53:27;;;;;;;;;;;;;;;;;;2082444;28;20004;-75
2021/03/19 02:54:28;;;;;;;;;;;;;;;;;;2082145;28;19948;-75
2021/03/19 02:55:30;;;;;;;;;;;;;;;;;;2082441;28;19921;-75
2021/03/19 02:56:31;;;;;;;;;;;;;;;;;;2082762;28;19921;-76
2021/03/19 02:57:32;;;;;;;;;;;;;;;;;;2082587;28;20272;-76
2021/03/19 02:58:33;;;;;;;;;;;;;;;;;;2081789;28;19964;-76
2021/03/19 02:59:34;;;;;;;;;;;;;;;;;;2082180;28;19964;-77
2021/03/19 03:00:35;;;;;;;;;;;;;;;;;;2081865;28;20269;-77
2021/03/19 03:01:36;;;;;;;;;;;;;;;;;;2081752;28;19925;-77
2021/03/19 03:02:37;;;;;;;;;;;;;;;;;;2089932;28;20354;-75
2021/03/19 03:03:39;;;;;;;;;;;;;;;;;;2089804;28;19921;-75
2021/03/19 03:04:40;;;;;;;;;;;;;;;;;;2082260;28;20284;-74
2021/03/19 03:05:42;;;;;;;;;;;;;;;;;;2082317;28;19921;-75
2021/03/19 03:06:47;;;;;;;;;;;;;;;;;;2082285;28;19932;-75
2021/03/19 03:07:48;;;;;;;;;;;;;;;;;;2082765;28;19921;-76
2021/03/19 03:08:49;;;;;;;;;;;;;;;;;;2082314;28;20273;-75
2021/03/19 03:09:50;;;;;;;;;;;;;;;;;;2081628;28;20347;-73
2021/03/19 03:10:54;;;;;;;;;;;;;;;;;;2081850;28;19921;-75
2021/03/19 03:11:55;;;;;;;;;;;;;;;;;;2089929;28;19950;-75
2021/03/19 03:12:56;;;;;;;;;;;;;;;;;;2089877;28;19963;-76
2021/03/19 03:13:57;;;;;;;;;;;;;;;;;;2082433;28;19990;-75
2021/03/19 03:14:59;;;;;;;;;;;;;;;;;;2082667;28;20264;-76
2021/03/19 03:16:01;;;;;;;;;;;;;;;;;;2082788;28;19922;-75
2021/03/19 03:17:02;;;;;;;;;;;;;;;;;;2089920;28;19929;-75
2021/03/19 03:18:04;;;;;;;;;;;;;;;;;;2089536;28;19928;-75
2021/03/19 03:19:06;;;;;;;;;;;;;;;;;;2082332;28;19921;-75
2021/03/19 03:20:13;;;;;;;;;;;;;;;;;;2082201;28;19960;-76
2021/03/19 03:21:14;;;;;;;;;;;;;;;;;;2082359;28;19921;-76
2021/03/19 03:22:15;;;;;;;;;;;;;;;;;;2082149;28;19967;-75
2021/03/19 03:23:17;;;;;;;;;;;;;;;;;;2081868;28;20292;-77
2021/03/19 03:24:18;;;;;;;;;;;;;;;;;;2089779;28;20326;-75
2021/03/19 03:25:21;;;;;;;;;;;;;;;;;;2082097;28;19921;-76
2021/03/19 03:26:22;;;;;;;;;;;;;;;;;;2083139;28;20312;-77
2021/03/19 03:27:23;;;;;;;;;;;;;;;;;;2083606;28;19972;-77
2021/03/19 03:28:25;;;;;;;;;;;;;;;;;;2083254;28;20292;-77
2021/03/19 03:29:26;;;;;;;;;;;;;;;;;;2083678;28;19921;-77
2021/03/19 03:30:35;;;;;;;;;;;;;;;;;;2084236;28;19925;-77
2021/03/19 03:31:36;;;;;;;;;;;;;;;;;;2083644;28;19921;-77
2021/03/19 03:32:38;;;;;;;;;;;;;;;;;;2083494;28;20272;-78
2021/03/19 03:33:39;;;;;;;;;;;;;;;;;;2084216;28;19921;-78
2021/03/19 03:34:40;;;;;;;;;;;;;;;;;;2083671;28;20311;-78
2021/03/19 03:35:42;;;;;;;;;;;;;;;;;;2083719;28;20019;-77
2021/03/19 03:36:43;;;;;;;;;;;;;;;;;;2083850;28;19932;-77
2021/03/19 03:37:45;;;;;;;;;;;;;;;;;;2083710;28;20356;-79
2021/03/19 03:38:46;;;;;;;;;;;;;;;;;;2083676;28;19921;-78
2021/03/19 03:39:47;;;;;;;;;;;;;;;;;;2083657;28;20361;-77
2021/03/19 03:40:50;;;;;;;;;;;;;;;;;;2083784;28;19921;-78
2021/03/19 03:41:52;;;;;;;;;;;;;;;;;;2083976;28;19964;-77
2021/03/19 03:42:53;;;;;;;;;;;;;;;;;;2083919;28;19929;-77
2021/03/19 03:43:54;;;;;;;;;;;;;;;;;;2074855;28;20325;-76
2021/03/19 03:44:55;;;;;;;;;;;;;;;;;;2075083;28;19922;-77
2021/03/19 03:45:57;;;;;;;;;;;;;;;;;;2083621;28;19925;-77
2021/03/19 03:46:58;;;;;;;;;;;;;;;;;;2083660;28;19958;-74
2021/03/19 03:47:59;;;;;;;;;;;;;;;;;;2083595;28;20250;-74
2021/03/19 03:49:00;;;;;;;;;;;;;;;;;;2082986;28;19928;-75
2021/03/19 03:50:04;;;;;;;;;;;;;;;;;;2082899;28;19929;-74
2021/03/19 03:51:07;;;;;;;;;;;;;;;;;;2084022;28;20016;-74
2021/03/19 03:52:08;;;;;;;;;;;;;;;;;;2091321;28;20002;-74
2021/03/19 03:53:10;;;;;;;;;;;;;;;;;;2091591;28;19970;-74
2021/03/19 03:54:11;;;;;;;;;;;;;;;;;;2083996;28;20009;-75
2021/03/19 03:55:12;;;;;;;;;;;;;;;;;;2083671;28;19967;-75
2021/03/19 03:56:13;;;;;;;;;;;;;;;;;;2083551;28;20023;-76
2021/03/19 03:57:14;;;;;;;;;;;;;;;;;;2083641;28;19921;-76
2021/03/19 03:58:16;;;;;;;;;;;;;;;;;;2083683;28;19928;-76
2021/03/19 03:59:17;;;;;;;;;;;;;;;;;;2091107;28;20015;-76
2021/03/19 04:00:21;;;;;;;;;;;;;;;;;;2091004;28;19921;-76
2021/03/19 04:01:23;;;;;;;;;;;;;;;;;;2083612;28;19967;-75
2021/03/19 04:02:25;;;;;;;;;;;;;;;;;;2083524;28;20333;-74
2021/03/19 04:03:27;;;;;;;;;;;;;;;;;;2083403;28;20357;-75
2021/03/19 04:04:28;;;;;;;;;;;;;;;;;;2083434;28;20019;-74
2021/03/19 04:05:33;;;;;;;;;;;;;;;;;;2083571;28;19921;-74
2021/03/19 04:06:34;;;;;;;;;;;;;;;;;;2091707;28;19921;-75
2021/03/19 04:07:35;;;;;;;;;;;;;;;;;;2091367;28;20280;-75
2021/03/19 04:08:38;;;;;;;;;;;;;;;;;;2084193;28;20012;-75
2021/03/19 04:09:39;;;;;;;;;;;;;;;;;;2083860;28;19921;-76
2021/03/19 04:10:40;;;;;;;;;;;;;;;;;;2084010;28;20354;-78
2021/03/19 04:11:41;;;;;;;;;;;;;;;;;;2083405;28;20412;-76
2021/03/19 04:12:43;;;;;;;;;;;;;;;;;;2083539;28;19925;-75
2021/03/19 04:13:44;;;;;;;;;;;;;;;;;;2074808;28;19972;-76
2021/03/19 04:14:45;;;;;;;;;;;;;;;;;;2074610;28;20459;-76
2021/03/19 04:15:48;;;;;;;;;;;;;;;;;;2083875;28;19967;-75
2021/03/19 04:16:49;;;;;;;;;;;;;;;;;;2083438;28;20016;-73
2021/03/19 04:17:58;;;;;;;;;;;;;;;;;;2090739;28;20387;-75
2021/03/19 04:18:59;;;;;;;;;;;;;;;;;;2089992;28;19944;-75
2021/03/19 04:20:00;;;;;;;;;;;;;;;;;;2083467;28;20004;-74
2021/03/19 04:21:01;;;;;;;;;;;;;;;;;;2083223;28;20281;-74
2021/03/19 04:22:03;;;;;;;;;;;;;;;;;;2091007;28;19964;-74
2021/03/19 04:23:04;;;;;;;;;;;;;;;;;;2091007;28;20019;-74
2021/03/19 04:24:05;;;;;;;;;;;;;;;;;;2083460;28;19921;-76
2021/03/19 04:25:07;;;;;;;;;;;;;;;;;;2083671;28;20372;-74
2021/03/19 04:26:17;;;;;;;;;;;;;;;;;;2083719;28;19951;-75
2021/03/19 04:27:19;;;;;;;;;;;;;;;;;;2083366;28;20008;-74
2021/03/19 04:28:21;;;;;;;;;;;;;;;;;;2083241;28;19925;-74
2021/03/19 04:29:23;;;;;;;;;;;;;;;;;;2090604;28;19932;-74
2021/03/19 04:30:23;;;;;;;;;;;;;;;;;;2082658;28;20396;-74
2021/03/19 04:31:25;;;;;;;;;;;;;;;;;;2082819;28;19944;-74
2021/03/19 04:32:26;;;;;;;;;;;;;;;;;;2083227;28;19921;-74
2021/03/19 04:33:28;;;;;;;;;;;;;;;;;;2090893;28;19986;-74
2021/03/19 04:34:29;;;;;;;;;;;;;;;;;;2090510;28;19943;-76
2021/03/19 04:35:32;;;;;;;;;;;;;;;;;;2083115;28;19921;-75
2021/03/19 04:36:41;;;;;;;;;;;;;;;;;;2083284;28;19925;-76
2021/03/19 04:37:42;;;;;;;;;;;;;;;;;;2083197;28;20576;-75
2021/03/19 04:38:44;;;;;;;;;;;;;;;;;;2083464;28;19966;-75
2021/03/19 04:39:45;;;;;;;;;;;;;;;;;;2083187;28;19928;-77
2021/03/19 04:40:46;;;;;;;;;;;;;;;;;;2090684;28;19967;-77
2021/03/19 04:41:50;;;;;;;;;;;;;;;;;;2090684;28;19959;-76
2021/03/19 04:42:51;;;;;;;;;;;;;;;;;;2083516;28;19921;-78
2021/03/19 04:43:52;;;;;;;;;;;;;;;;;;2082517;28;20430;-77
2021/03/19 04:44:53;;;;;;;;;;;;;;;;;;2082650;28;19967;-77
2021/03/19 04:45:54;;;;;;;;;;;;;;;;;;2082653;28;20016;-76
2021/03/19 04:46:56;;;;;;;;;;;;;;;;;;2083223;28;19921;-77
2021/03/19 04:47:57;;;;;;;;;;;;;;;;;;2083245;28;19928;-78
2021/03/19 04:48:58;;;;;;;;;;;;;;;;;;2090734;28;19921;-76
2021/03/19 04:49:59;;;;;;;;;;;;;;;;;;2090660;28;19968;-76
2021/03/19 04:51:00;;;;;;;;;;;;;;;;;;2083093;28;20319;-77
2021/03/19 04:52:04;;;;;;;;;;;;;;;;;;2082961;28;19921;-76
2021/03/19 04:53:05;;;;;;;;;;;;;;;;;;2082877;28;20262;-76
2021/03/19 04:54:07;;;;;;;;;;;;;;;;;;2082969;28;19975;-77
2021/03/19 04:55:10;;;;;;;;;;;;;;;;;;2082478;28;19961;-77
2021/03/19 04:56:11;;;;;;;;;;;;;;;;;;2090806;28;20400;-77
2021/03/19 04:57:11;;;;;;;;;;;;;;;;;;2090943;28;19971;-76
2021/03/19 04:58:13;;;;;;;;;;;;;;;;;;2083527;28;19929;-78
2021/03/19 04:59:14;;;;;;;;;;;;;;;;;;2090749;28;19944;-77
2021/03/19 05:00:15;;;;;;;;;;;;;;;;;;2090786;28;19957;-78
2021/03/19 05:01:17;;;;;;;;;;;;;;;;;;2091207;28;19928;-77
2021/03/19 05:02:29;;;;;;;;;;;;;;;;;;2090768;28;19920;-76
2021/03/19 05:03:31;;;;;;;;;;;;;;;;;;2090677;28;19928;-77
2021/03/19 05:04:32;;;;;;;;;;;;;;;;;;2090775;28;19920;-77
2021/03/19 05:05:34;;;;;;;;;;;;;;;;;;2090732;28;19925;-77
2021/03/19 05:06:35;;;;;;;;;;;;;;;;;;2090439;28;20292;-77
2021/03/19 05:07:36;;;;;;;;;;;;;;;;;;2083046;28;19922;-79
2021/03/19 05:08:37;;;;;;;;;;;;;;;;;;2090569;28;19924;-76
2021/03/19 05:09:38;;;;;;;;;;;;;;;;;;2090845;28;19928;-75
2021/03/19 05:10:40;;;;;;;;;;;;;;;;;;2083059;28;19928;-76
2021/03/19 05:11:41;;;;;;;;;;;;;;;;;;2082894;28;19921;-76
2021/03/19 05:12:42;;;;;;;;;;;;;;;;;;2083513;28;19975;-77
2021/03/19 05:13:43;;;;;;;;;;;;;;;;;;2082792;28;19925;-76
2021/03/19 05:14:44;;;;;;;;;;;;;;;;;;2082312;28;19921;-76
2021/03/19 05:15:46;;;;;;;;;;;;;;;;;;2082954;28;19944;-76
2021/03/19 05:16:47;;;;;;;;;;;;;;;;;;2083058;28;19929;-78
2021/03/19 05:17:48;;;;;;;;;;;;;;;;;;2082798;28;19944;-75
2021/03/19 05:18:49;;;;;;;;;;;;;;;;;;2082937;28;19921;-74
2021/03/19 05:19:50;;;;;;;;;;;;;;;;;;2082429;28;20464;-75
2021/03/19 05:20:51;;;;;;;;;;;;;;;;;;2074160;28;20028;-74
2021/03/19 05:21:52;;;;;;;;;;;;;;;;;;2074131;28;19979;-76
2021/03/19 05:22:54;;;;;;;;;;;;;;;;;;2082382;28;19989;-74
2021/03/19 05:23:55;;;;;;;;;;;;;;;;;;2082577;28;19925;-76
2021/03/19 05:24:55;;;;;;;;;;;;;;;;;;2090627;28;19921;-75
2021/03/19 05:25:57;;;;;;;;;;;;;;;;;;2090921;28;19928;-76
2021/03/19 05:26:58;;;;;;;;;;;;;;;;;;2074249;28;19960;-74
2021/03/19 05:28:00;;;;;;;;;;;;;;;;;;2074754;28;19921;-74
2021/03/19 05:29:01;;;;;;;;;;;;;;;;;;2074396;28;20030;-75
2021/03/19 05:30:04;;;;;;;;;;;;;;;;;;2082108;28;19921;-73
2021/03/19 05:31:05;;;;;;;;;;;;;;;;;;2090898;28;20012;-73
2021/03/19 05:32:06;;;;;;;;;;;;;;;;;;2090405;28;19921;-73
2021/03/19 05:33:08;;;;;;;;;;;;;;;;;;2090356;28;20008;-73
2021/03/19 05:34:10;;;;;;;;;;;;;;;;;;2090686;28;19921;-73
2021/03/19 05:35:12;;;;;;;;;;;;;;;;;;2091139;28;19921;-73
2021/03/19 05:36:14;;;;;;;;;;;;;;;;;;2090470;28;19931;-74
2021/03/19 05:37:15;;;;;;;;;;;;;;;;;;2082351;28;20011;-74
2021/03/19 05:38:16;;;;;;;;;;;;;;;;;;2090525;28;19921;-74
2021/03/19 05:39:17;;;;;;;;;;;;;;;;;;2090769;28;19974;-75
2021/03/19 05:40:44;;;;;;;;;;;;;;;;;;2082851;28;19921;-76
2021/03/19 05:41:45;;;;;;;;;;;;;;;;;;2081536;28;20452;-75
2021/03/19 05:42:46;;;;;;;;;;;;;;;;;;2082892;28;19921;-74
2021/03/19 05:43:47;;;;;;;;;;;;;;;;;;2090245;28;19920;-74
2021/03/19 05:44:49;;;;;;;;;;;;;;;;;;2082752;28;19971;-73
2021/03/19 05:45:56;;;;;;;;;;;;;;;;;;2082752;28;19921;-73
2021/03/19 05:47:02;;;;;;;;;;;;;;;;;;2082735;28;19952;-74
2021/03/19 05:48:03;;;;;;;;;;;;;;;;;;2082763;28;19960;-74
2021/03/19 05:49:08;;;;;;;;;;;;;;;;;;2090107;28;20019;-77
2021/03/19 05:50:20;;;;;;;;;;;;;;;;;;2089875;28;20349;-76
2021/03/19 05:51:24;;;;;;;;;;;;;;;;;;2082000;28;19925;-75
2021/03/19 05:52:35;;;;;;;;;;;;;;;;;;2081979;28;20311;-77
2021/03/19 05:53:36;;;;;;;;;;;;;;;;;;2083032;28;19932;-76
2021/03/19 05:54:39;;;;;;;;;;;;;;;;;;2082942;28;19975;-75
2021/03/19 05:55:40;;;;;;;;;;;;;;;;;;2082782;28;20015;-75
2021/03/19 05:56:42;;;;;;;;;;;;;;;;;;2082575;28;20395;-76
2021/03/19 05:57:44;;;;;;;;;;;;;;;;;;2082367;28;20363;-75
2021/03/19 05:58:45;;;;;;;;;;;;;;;;;;2082078;28;20391;-75
2021/03/19 05:59:55;;;;;;;;;;;;;;;;;;2082493;28;20269;-76
2021/03/19 06:00:57;;;;;;;;;;;;;;;;;;2082647;28;19922;-76
2021/03/19 06:01:58;;;;;;;;;;;;;;;;;;2082530;28;19963;-76
2021/03/19 06:03:00;;;;;;;;;;;;;;;;;;2082559;28;19921;-76
2021/03/19 06:04:03;;;;;;;;;;;;;;;;;;2082077;28;19921;-76
2021/03/19 06:05:09;;;;;;;;;;;;;;;;;;2082638;28;19971;-75
2021/03/19 06:06:11;;;;;;;;;;;;;;;;;;2082364;28;19921;-77
2021/03/19 06:07:12;;;;;;;;;;;;;;;;;;2074365;28;20258;-77
2021/03/19 06:08:13;;;;;;;;;;;;;;;;;;2081996;28;20353;-76
2021/03/19 06:09:28;;;;;;;;;;;;;;;;;;2082920;28;19970;-76
2021/03/19 06:10:36;;;;;;;;;;;;;;;;;;2090190;28;19924;-77
2021/03/19 06:11:47;;;;;;;;;;;;;;;;;;2089219;28;19982;-77
2021/03/19 06:12:49;;;;;;;;;;;;;;;;;;2082848;28;19929;-75
2021/03/19 06:13:55;;;;;;;;;;;;;;;;;;2082499;28;19960;-74
2021/03/19 06:14:56;;;;;;;;;;;;;;;;;;2082412;28;19921;-74
2021/03/19 06:15:57;;;;;;;;;;;;;;;;;;2082680;28;20020;-73
2021/03/19 06:17:08;;;;;;;;;;;;;;;;;;2082487;28;19921;-74
2021/03/19 06:18:44;;;;;;;;;;;;;;;;;;2090155;28;20015;-74
2021/03/19 06:19:52;;;;;;;;;;;;;;;;;;2081431;28;19966;-75
2021/03/19 06:20:56;;;;;;;;;;;;;;;;;;2081960;28;20120;-74
2021/03/19 06:22:21;;;;;;;;;;;;;;;;;;2075649;28;20012;-73
2021/03/19 06:23:30;;;;;;;;;;;;;;;;;;2080492;28;20331;-74
2021/03/19 06:24:32;;;;;;;;;;;;;;;;;;2082432;28;20415;-74
2021/03/19 06:25:33;;;;;;;;;;;;;;;;;;2082637;28;19964;-72
2021/03/19 06:26:39;;;;;;;;;;;;;;;;;;2082769;28;19921;-73
2021/03/19 06:27:46;;;;;;;;;;;;;;;;;;2082484;28;20273;-73
2021/03/19 06:28:50;;;;;;;;;;;;;;;;;;2082646;28;20019;-72
2021/03/19 06:29:55;;;;;;;;;;;;;;;;;;2082499;28;19968;-73
2021/03/19 06:31:15;;;;;;;;;;;;;;;;;;2082426;28;19928;-75
2021/03/19 06:32:19;;;;;;;;;;;;;;;;;;2082435;28;19988;-74
2021/03/19 06:33:25;;;;;;;;;;;;;;;;;;2082698;28;19921;-73
2021/03/19 06:34:26;;;;;;;;;;;;;;;;;;2082758;28;19921;-73
2021/03/19 06:35:36;;;;;;;;;;;;;;;;;;2082508;28;19921;-73
2021/03/19 06:36:49;;;;;;;;;;;;;;;;;;2082496;28;19924;-73
2021/03/19 06:37:50;;;;;;;;;;;;;;;;;;2082581;28;19921;-73
2021/03/19 06:39:18;;;;;;;;;;;;;;;;;;2090108;28;19928;-73
2021/03/19 06:40:19;;;;;;;;;;;;;;;;;;2085535;28;19921;-74
2021/03/19 06:41:20;;;;;;;;;;;;;;;;;;2082504;28;19960;-75
2021/03/19 06:42:21;;;;;;;;;;;;;;;;;;2090325;28;19921;-74
2021/03/19 06:43:23;;;;;;;;;;;;;;;;;;2090311;28;19967;-74
2021/03/19 06:44:24;;;;;;;;;;;;;;;;;;2081823;28;20011;-72
2021/03/19 06:45:26;;;;;;;;;;;;;;;;;;2090135;28;19944;-73
2021/03/19 06:46:41;;;;;;;;;;;;;;;;;;2089938;28;20004;-73
2021/03/19 06:47:53;;;;;;;;;;;;;;;;;;2082429;28;19921;-73
2021/03/19 06:48:54;;;;;;;;;;;;;;;;;;2082590;28;19921;-72
2021/03/19 06:49:55;;;;;;;;;;;;;;;;;;2082416;28;20422;-73
2021/03/19 06:50:57;;;;;;;;;;;;;;;;;;2082527;28;19928;-73
2021/03/19 06:52:16;;;;;;;;;;;;;;;;;;2081785;28;20373;-73
2021/03/19 06:53:22;;;;;;;;;;;;;;;;;;2081958;28;19921;-73
2021/03/19 06:54:26;;;;;;;;;;;;;;;;;;2090274;28;20360;-73
2021/03/19 06:55:33;;;;;;;;;;;;;;;;;;2089846;28;19928;-73
2021/03/19 06:56:35;;;;;;;;;;;;;;;;;;2081874;28;19925;-73
2021/03/19 06:57:43;;;;;;;;;;;;;;;;;;2090385;28;20015;-72
2021/03/19 06:58:49;;;;;;;;;;;;;;;;;;2088834;28;19972;-73
2021/03/19 06:59:54;;;;;;;;;;;;;;;;;;2090774;28;20284;-73
2021/03/19 07:00:55;;;;;;;;;;;;;;;;;;2098257;28;19963;-73
2021/03/19 07:01:56;;;;;;;;;;;;;;;;;;2083955;28;19928;-73
2021/03/19 07:03:18;;;;;;;;;;;;;;;;;;2091490;28;19921;-75
2021/03/19 07:04:19;;;;;;;;;;;;;;;;;;2088427;28;19921;-73
2021/03/19 07:05:38;;;;;;;;;;;;;;;;;;2084240;28;19921;-75
2021/03/19 07:06:57;;;;;;;;;;;;;;;;;;2092086;28;19927;-73
2021/03/19 07:08:09;;;;;;;;;;;;;;;;;;2088909;28;19921;-74
2021/03/19 07:09:13;;;;;;;;;;;;;;;;;;2083482;28;19922;-74
2021/03/19 07:10:28;;;;;;;;;;;;;;;;;;2083816;28;20363;-74
2021/03/19 07:11:29;;;;;;;;;;;;;;;;;;2091852;28;19921;-74
2021/03/19 07:12:30;;;;;;;;;;;;;;;;;;2091815;28;19974;-73
2021/03/19 07:13:31;;;;;;;;;;;;;;;;;;2083449;28;19921;-74
2021/03/19 07:14:42;;;;;;;;;;;;;;;;;;2084146;28;19928;-74
2021/03/19 07:15:58;;;;;;;;;;;;;;;;;;2084274;28;20370;-74
2021/03/19 07:16:59;;;;;;;;;;;;;;;;;;2092331;28;19968;-74
2021/03/19 07:18:04;;;;;;;;;;;;;;;;;;2091444;28;19921;-74